UNTT 090900Z 21001MPS CAVOK M16/M19 Q1017 R21/490140 NOSIG RMK QFE748
QNH:(hPa/inHg/mmHg)1017 / 30.03 / 763
QFE:(hPa/inHg/mmHg)995 / 29.38 / 746
Temperature-16
Dew Point-19
Visibility> 10000
WeatherCAVOK
Cloud Cover
Transition Height700 m./2900 ft.
Transition LevelFL40
SQUAWK